Nearby METAR Reports

 

EDNY - Friedrichshafen, Germany
Distance from station: O 31km
aktuell: 08.02.2016 10:20
klar
klar
 Wind von varies
Wind: varies 4 km/h
Temperatur: 5°C
Taupunkt: 1°C
Luftfeuchte: 76%
Luftdruck: 1008 hPa
Zusammenfassung: klar
Visibility: greater than 10 km
2016/02/08 09:20 EDNY 080920Z VRB02KT CAVOK 05/01 Q1008
LSZR - Rheineck/Altenrh, Switzerland
Distance from station: SO 42km
aktuell: 08.02.2016 10:50
stark bewölkt
stark bewölkt
 Wind von W
Wind: W 7 km/h
Temperatur: 7°C
gefühlte Temperatur: 6°C
Taupunkt: 3°C
Luftfeuchte: 76%
Luftdruck: 1008 hPa
Clouds: stark bewölkt
Visibility: 10 km
Cloud details: teilweise bewölkt 1829 m
stark bewölkt 6706 m
2016/02/08 09:50 LSZR 080950Z 26004KT 220V320 9999 SCT060 BKN220 07/03 Q1008 NOSIG RMK E
LSZH - Zurich-Kloten (a, Switzerland
Distance from station: WSW 49km
aktuell: 08.02.2016 10:50
klar
klar
 Wind von S
Wind: S 20 km/h
Temperatur: 7°C
gefühlte Temperatur: 4°C
Taupunkt: 0°C
Luftfeuchte: 61%
Luftdruck: 1007 hPa
Zusammenfassung: klar
Visibility: greater than 10 km
2016/02/08 09:50 LSZH 080950Z 19011KT CAVOK 07/00 Q1007 BECMG 23013G25KT
 
EDTD - Donaueschingen, Germany
Distance from station: NW 53km
aktuell: 30.04.2014 18:20
NOT Current
sehr leichter Niederschlag, geschlossene Wolkendecke
sehr leichter Niederschlag, geschlossene Wolkendecke
 Wind von SSW
Wind: SSW 9 km/h
Temperatur: 10°C
gefühlte Temperatur: 9°C
Taupunkt: 10°C
Luftfeuchte: 100%
Luftdruck: 1011 hPa
Zusammenfassung: sehr leichter Niederschlag
Clouds: geschlossene Wolkendecke
Visibility: 9 km
Cloud details: stark bewölkt 213 m
geschlossene Wolkendecke 335 m
2014/04/30 16:20 EDTD 301620Z 20005KT 9000 -RA BKN007 OVC011 10/10 Q1011 LAST ?
ETGZ - Messstetten, Germany
Distance from station: N 54km
aktuell: 30.09.2013 14:20
NOT Current
geschlossene Wolkendecke
geschlossene Wolkendecke
 Wind von varies
Wind: varies 4 km/h
Temperatur: 8°C
Taupunkt: 7°C
Luftfeuchte: 93%
Luftdruck: 1007 hPa
Clouds: geschlossene Wolkendecke
Visibility: 10 km
Cloud details: geschlossene Wolkendecke 213 m
2013/09/30 12:20 ETGZ 301220Z VRB02KT 9999 OVC007 08/07 Q1007 GRN
LOIH - Hohenems-Dornbir, Austria
Distance from station: SO 57km
aktuell: 08.02.2016 10:00
stark bewölkt
stark bewölkt
 Wind von calm
Wind: Windstill
Temperatur: 6°C
Taupunkt: 5°C
Luftfeuchte: 93%
Luftdruck: 1008 hPa
Clouds: stark bewölkt
Cloud details: stark bewölkt 4267 m
2016/02/08 09:00 LOIH 080900Z 00000KT 35KM BKN140AC 06/05 Q1008 RMK BKN
 
ETHL - Laupheim (ger-Ar, Germany
Distance from station: NO 84km
aktuell: 08.02.2016 10:20
stark bewölkt
stark bewölkt
 Wind von SW
Wind: SW 31 km/h
Temperatur: 6°C
gefühlte Temperatur: 1°C
Taupunkt: -1°C
Luftfeuchte: 61%
Luftdruck: 1006 hPa
Clouds: stark bewölkt
Visibility: 10 km
Cloud details: Few Clouds 1524 m
teilweise bewölkt 4572 m
stark bewölkt 7315 m
2016/02/08 09:20 ETHL 080920Z 22017KT 9999 FEW050 SCT150 BKN240 06/M01 Q1006 BLU+BLU+
EDJA - Memmingen Allgau, Germany
Distance from station: ONO 90km
aktuell: 08.02.2016 10:20
klar
klar
 Wind von SSW
Wind: SSW 24 km/h
Temperatur: 4°C
gefühlte Temperatur: -1°C
Taupunkt: 1°C
Luftfeuchte: 81%
Luftdruck: 1007 hPa
Zusammenfassung: klar
Visibility: greater than 10 km
2016/02/08 09:20 EDJA 080920Z 20013KT CAVOK 04/01 Q1007
LSME - Emmen, Switzerland
Distance from station: SW 90km
aktuell: 08.02.2016 10:50
klar
klar
 Wind von varies
Wind: varies 6 km/h
Temperatur: 6°C
Taupunkt: 2°C
Luftfeuchte: 76%
Luftdruck: 1009 hPa
Clouds: klar
Visibility: 16 miles
2016/02/08 09:50 LSME 080950Z AUTO VRB03KT 9999NDV NCD 06/02 Q1009 RMK
 
LSZC - Buochs, Switzerland
Distance from station: SSW 98km
aktuell: 08.02.2016 10:50
klar
klar
 Wind von varies
Wind: varies 2 km/h
Temperatur: 6°C
Taupunkt: 2°C
Luftfeuchte: 76%
Luftdruck: 1009 hPa
Zusammenfassung: klar
Visibility: greater than 10 km
2016/02/08 09:50 LSZC 080950Z VRB01KT CAVOK 06/02 Q1009